Time;durP1;ratioP1;P1;durP2;ratioP2;P2;SDS_P1;SDS_P2;PMS_P1;PMS_P2;Temp;Humidity;BMP_temperature;BMP_pressure;BME280_temperature;BME280_humidity;BME280_pressure;Samples;Min_cycle;Max_cycle;Signal;HPM_P1;HPM_P2
2023/10/20 03:05:51;;;;;;;16.80;15.10;;;;;;;11.84;100.00;98249.59;101582;1294;601185;-56
2023/10/20 03:08:19;;;;;;;16.60;14.80;;;;;;;12.31;100.00;98243.86;103720;1267;61391;-56
2023/10/20 03:10:47;;;;;;;;;;;;;;;12.30;100.00;98245.17;103516;1268;60118;-56
2023/10/20 03:13:16;;;;;;;16.50;14.90;;;;;;;12.30;100.00;98242.66;103561;1272;71938;-56
2023/10/20 03:15:44;;;;;;;18.10;16.00;;;;;;;12.31;100.00;98237.91;104715;1265;69022;-57
2023/10/20 03:18:14;;;;;;;17.50;15.70;;;;;;;12.30;100.00;98240.95;106611;1266;72884;-58
2023/10/20 03:20:43;;;;;;;16.90;15.20;;;;;;;12.30;100.00;98242.86;104105;1267;62616;-57
2023/10/20 03:23:13;;;;;;;23.70;15.80;;;;;;;12.30;100.00;98236.92;104080;1269;59720;-56
2023/10/20 03:25:41;;;;;;;18.70;16.20;;;;;;;12.28;100.00;98242.27;104171;1264;71916;-57
2023/10/20 03:28:09;;;;;;;17.80;15.90;;;;;;;12.27;100.00;98237.10;104166;1264;69814;-57
2023/10/20 03:30:40;;;;;;;18.10;16.20;;;;;;;12.26;100.00;98235.93;104191;1269;72040;-57
2023/10/20 03:33:13;;;;;;;17.30;15.10;;;;;;;12.27;100.00;98234.66;103868;1266;62197;-56
2023/10/20 03:35:43;;;;;;;17.40;15.50;;;;;;;12.28;100.00;98239.31;104205;1260;59726;-56
2023/10/20 03:38:10;;;;;;;17.40;15.30;;;;;;;12.30;100.00;98237.10;104115;1257;73651;-57
2023/10/20 03:40:40;;;;;;;16.90;14.30;;;;;;;12.29;100.00;98234.66;103833;1266;69360;-56
2023/10/20 03:43:08;;;;;;;17.10;15.30;;;;;;;12.30;100.00;98238.66;104004;1276;72227;-57
2023/10/20 03:45:41;;;;;;;16.20;14.60;;;;;;;12.31;100.00;98237.16;104307;1256;61739;-57
2023/10/20 03:48:09;;;;;;;17.80;16.00;;;;;;;12.34;100.00;98232.94;104284;1262;59700;-59
2023/10/20 03:50:43;;;;;;;15.60;14.00;;;;;;;12.37;100.00;98234.65;104282;1260;72814;-57
2023/10/20 03:53:18;;;;;;;17.50;14.80;;;;;;;12.43;100.00;98233.67;104170;1263;69168;-55
2023/10/20 03:56:02;;;;;;;16.80;15.10;;;;;;;12.42;100.00;98230.53;104234;1262;72492;-58
2023/10/20 03:58:34;;;;;;;15.90;14.10;;;;;;;12.41;100.00;98223.43;104232;1257;61376;-56
2023/10/20 04:01:02;;;;;;;17.10;14.40;;;;;;;12.41;100.00;98224.31;107540;1257;60755;-57
2023/10/20 04:03:30;;;;;;;15.80;14.20;;;;;;;12.43;100.00;98215.18;105721;1261;73575;-56
2023/10/20 04:05:58;;;;;;;;;;;;;;;12.45;100.00;98217.65;105148;1257;73446;-57
2023/10/20 04:08:25;;;;;;;;;;;;;;;12.49;100.00;98223.44;104469;1272;71482;-59
2023/10/20 04:10:56;;;;;;;;;;;;;;;12.49;100.00;98228.13;104851;1254;61768;-56
2023/10/20 04:13:24;;;;;;;14.50;13.10;;;;;;;12.49;100.00;98229.20;104524;1260;59692;-57
2023/10/20 04:15:55;;;;;;;17.00;15.20;;;;;;;12.49;100.00;98223.59;104563;1267;72783;-57
2023/10/20 04:18:23;;;;;;;18.00;15.50;;;;;;;12.52;100.00;98225.81;104480;1256;69323;-57
2023/10/20 04:20:57;;;;;;;20.10;15.50;;;;;;;12.55;100.00;98229.64;104676;1260;72417;-57
2023/10/20 04:23:26;;;;;;;17.10;15.30;;;;;;;12.57;100.00;98230.38;104411;1256;61492;-56
2023/10/20 04:25:54;;;;;;;18.30;16.30;;;;;;;12.55;100.00;98230.69;104409;1251;59701;-57
2023/10/20 04:28:35;;;;;;;18.80;16.80;;;;;;;12.52;100.00;98226.36;104551;1251;71464;-56
2023/10/20 04:58:04;;;;;;;16.70;15.00;;;;;;;12.58;100.00;98223.24;104966;1257;69754;-57
2023/10/20 05:00:36;;;;;;;17.50;15.60;;;;;;;12.60;100.00;98224.48;104448;1259;72357;-57
2023/10/20 05:05:40;;;;;;;;;;;;;;;12.57;100.00;98216.13;104653;1251;59666;-58
2023/10/20 05:10:36;;;;;;;17.00;15.20;;;;;;;12.60;100.00;98214.70;104484;1255;69003;-58
2023/10/20 05:13:07;;;;;;;15.60;14.00;;;;;;;12.62;100.00;98214.16;106498;1251;72344;-57
2023/10/20 05:15:38;;;;;;;14.90;13.50;;;;;;;12.69;100.00;98210.65;104948;1255;61617;-58
2023/10/20 05:18:11;;;;;;;14.80;13.30;;;;;;;12.72;100.00;98206.23;108382;1251;59678;-56
2023/10/20 05:20:42;;;;;;;14.50;13.30;;;;;;;12.74;100.00;98200.42;106723;1256;72783;-57
2023/10/20 05:23:10;;;;;;;11.30;10.30;;;;;;;12.76;100.00;98194.89;104719;1253;69130;-59
2023/10/20 05:25:44;;;;;;;;;;;;;;;12.81;100.00;98188.83;104564;1266;71350;-58
2023/10/20 05:28:14;;;;;;;9.60;8.70;;;;;;;12.84;100.00;98184.77;104477;1254;61730;-58
2023/10/20 05:30:43;;;;;;;11.00;9.90;;;;;;;12.86;100.00;98186.89;104542;1258;59737;-58
2023/10/20 05:33:12;;;;;;;10.50;9.70;;;;;;;12.91;100.00;98187.22;104339;1268;72872;-58
2023/10/20 05:35:40;;;;;;;10.60;9.70;;;;;;;12.95;100.00;98192.41;104478;1273;69034;-58
2023/10/20 05:38:08;;;;;;;10.40;9.60;;;;;;;12.98;100.00;98191.94;104341;1263;72707;-58
2023/10/20 05:40:37;;;;;;;10.80;9.90;;;;;;;13.03;100.00;98192.81;104322;1254;61443;-59
2023/10/20 05:43:05;;;;;;;;;;;;;;;13.05;100.00;98190.20;104420;1256;59782;-59
2023/10/20 05:45:40;;;;;;;10.00;9.00;;;;;;;13.11;100.00;98180.79;104468;1261;72872;-58
2023/10/20 05:48:08;;;;;;;10.00;9.00;;;;;;;13.15;100.00;98170.84;104415;1260;69081;-57
2023/10/20 05:50:37;;;;;;;10.90;9.90;;;;;;;13.15;100.00;98166.56;104286;1260;72388;-58
2023/10/20 05:53:05;;;;;;;11.30;10.30;;;;;;;13.18;100.00;98163.70;104247;1257;61486;-56
2023/10/20 05:55:34;;;;;;;14.30;12.50;;;;;;;13.20;100.00;98162.29;104365;1259;59789;-58
2023/10/20 05:58:02;;;;;;;14.30;11.70;;;;;;;13.19;100.00;98151.70;104395;1260;72297;-58
2023/10/20 06:00:29;;;;;;;13.00;11.80;;;;;;;13.23;100.00;98146.92;104285;1275;69175;-57
2023/10/20 06:02:58;;;;;;;14.50;12.30;;;;;;;13.25;100.00;98154.17;104459;1255;72918;-58
2023/10/20 06:05:28;;;;;;;13.50;12.20;;;;;;;13.28;100.00;98150.97;108271;1254;62301;-56
2023/10/20 06:07:56;;;;;;;12.40;11.20;;;;;;;13.35;100.00;98156.66;104876;1257;59722;-58
2023/10/20 06:10:24;;;;;;;;;;;;;;;13.35;100.00;98159.86;104674;1254;73272;-58
2023/10/20 06:12:52;;;;;;;;;;;;;;;13.33;100.00;98161.70;104651;1267;69984;-58
2023/10/20 06:15:20;;;;;;;13.20;11.80;;;;;;;13.33;100.00;98167.01;104542;1255;72266;-58
2023/10/20 06:17:49;;;;;;;14.80;13.30;;;;;;;13.34;100.00;98159.75;104272;1260;60467;-58
2023/10/20 06:20:18;;;;;;;14.50;13.10;;;;;;;13.34;100.00;98157.62;104366;1257;60070;-58
2023/10/20 06:22:46;;;;;;;13.40;12.00;;;;;;;13.38;100.00;98152.20;104435;1254;73307;-57
2023/10/20 06:25:14;;;;;;;13.80;12.50;;;;;;;13.41;100.00;98165.69;104358;1259;68081;-57
2023/10/20 06:27:42;;;;;;;14.80;13.40;;;;;;;13.42;100.00;98176.48;104333;1258;72991;-58
2023/10/20 06:30:15;;;;;;;13.60;12.30;;;;;;;13.47;100.00;98181.55;104300;1260;61979;-58
2023/10/20 06:32:44;;;;;;;14.10;12.70;;;;;;;13.53;100.00;98178.66;104380;1257;60363;-58
2023/10/20 06:35:16;;;;;;;13.80;12.30;;;;;;;13.59;100.00;98174.47;104371;1267;72789;-58
2023/10/20 06:37:56;;;;;;;12.80;11.50;;;;;;;13.66;100.00;98164.61;104361;1260;69424;-58
2023/10/20 06:40:24;;;;;;;13.00;11.80;;;;;;;13.69;100.00;98156.64;104494;1255;72336;-59
2023/10/20 06:42:52;;;;;;;11.70;10.60;;;;;;;13.73;100.00;98142.16;104387;1251;61363;-58
2023/10/20 06:45:20;;;;;;;12.50;11.20;;;;;;;13.79;100.00;98143.29;104378;1257;59658;-59
2023/10/20 06:47:47;;;;;;;12.30;11.10;;;;;;;13.79;100.00;98145.90;104386;1258;73260;-58
2023/10/20 06:50:15;;;;;;;;;;;;;;;13.80;100.00;98138.15;104423;1264;70292;-58
2023/10/20 06:52:43;;;;;;;;;;;;;;;13.86;100.00;98140.96;104450;1254;72331;-58
2023/10/20 06:55:13;;;;;;;10.70;9.70;;;;;;;13.90;100.00;98139.85;104265;1255;61425;-59
2023/10/20 06:57:44;;;;;;;11.90;9.10;;;;;;;13.94;100.00;98141.97;104293;1260;59797;-57
2023/10/20 07:00:20;;;;;;;10.00;8.60;;;;;;;14.05;100.00;98149.89;104418;1267;73759;-57
2023/10/20 07:02:48;;;;;;;10.60;8.50;;;;;;;14.16;100.00;98152.53;104339;1257;69360;-58
2023/10/20 07:05:17;;;;;;;9.50;8.00;;;;;;;14.26;100.00;98153.68;104328;1257;73155;-58
2023/10/20 07:07:46;;;;;;;10.70;8.40;;;;;;;14.34;100.00;98146.14;104277;1258;61646;-58
2023/10/20 07:10:14;;;;;;;;;;;;;;;14.40;100.00;98143.34;104472;1254;59790;-57
2023/10/20 07:12:43;;;;;;;9.00;8.10;;;;;;;14.43;100.00;98137.92;104248;1257;73237;-57
2023/10/20 07:15:11;;;;;;;11.20;7.90;;;;;;;14.47;100.00;98136.60;104321;1260;69912;-57
2023/10/20 07:17:39;;;;;;;10.20;8.50;;;;;;;14.47;100.00;98134.16;104417;1257;72500;-57
2023/10/20 07:20:10;;;;;;;11.40;8.90;;;;;;;14.48;100.00;98128.75;108235;1254;62476;-56
2023/10/20 07:22:38;;;;;;;;;;;;;;;14.56;100.00;98137.96;106284;1254;60610;-57
2023/10/20 07:25:07;;;;;;;7.70;7.00;;;;;;;14.64;100.00;98139.98;104674;1271;73710;-56
2023/10/20 07:27:35;;;;;;;9.00;6.80;;;;;;;14.67;100.00;98143.60;104728;1255;69838;-57
2023/10/20 07:30:03;;;;;;;15.10;6.40;;;;;;;14.74;100.00;98146.38;104345;1268;74543;-57
2023/10/20 07:32:33;;;;;;;6.10;5.20;;;;;;;14.73;100.00;98148.58;104311;1260;60590;-58
2023/10/20 07:35:02;;;;;;;8.30;5.40;;;;;;;14.74;100.00;98148.79;104341;1257;59955;-59
2023/10/20 07:37:31;;;;;;;7.40;5.90;;;;;;;14.79;100.00;98152.49;104462;1255;73732;-59
2023/10/20 07:40:01;;;;;;;6.30;5.70;;;;;;;14.77;100.00;98150.48;104168;1257;69148;-60
2023/10/20 07:42:30;;;;;;;7.50;5.70;;;;;;;14.74;100.00;98142.68;104414;1258;75832;-56
2023/10/20 07:45:01;;;;;;;7.40;6.60;;;;;;;14.79;100.00;98155.25;104339;1256;62401;-58
2023/10/20 07:47:29;;;;;;;6.80;6.20;;;;;;;14.78;100.00;98158.86;104481;1259;60556;-56
2023/10/20 07:49:57;;;;;;;9.40;7.20;;;;;;;14.82;100.00;98158.59;104372;1274;73635;-59
2023/10/20 07:52:25;;;;;;;7.70;6.90;;;;;;;14.84;100.00;98164.22;104313;1257;69234;-58
2023/10/20 07:54:53;;;;;;;8.60;6.70;;;;;;;14.85;100.00;98162.59;104410;1275;72538;-60
2023/10/20 07:57:22;;;;;;;8.90;6.40;;;;;;;14.85;100.00;98168.92;104392;1263;62017;-59
2023/10/20 07:59:50;;;;;;;7.20;6.50;;;;;;;14.88;100.00;98160.93;104283;1257;60501;-59
2023/10/20 08:02:18;;;;;;;12.60;7.20;;;;;;;14.89;100.00;98158.54;104446;1258;74518;-59
2023/10/20 08:04:46;;;;;;;8.70;7.80;;;;;;;14.89;100.00;98156.58;104296;1259;69489;-59
2023/10/20 08:07:15;;;;;;;9.30;8.30;;;;;;;14.91;100.00;98158.39;105270;1254;72518;-58
2023/10/20 08:09:43;;;;;;;11.10;10.00;;;;;;;14.93;100.00;98152.36;108240;1254;61391;-57
2023/10/20 08:12:10;;;;;;;9.50;8.30;;;;;;;14.94;100.00;98153.88;104758;1256;61020;-57
2023/10/20 08:14:38;;;;;;;10.50;7.50;;;;;;;14.94;100.00;98150.30;104444;1257;74868;-59
2023/10/20 08:17:08;;;;;;;;;;;;;;;14.93;100.00;98147.41;104328;1257;69344;-57
2023/10/20 08:19:35;;;;;;;8.20;6.80;;;;;;;14.95;100.00;98137.73;104331;1266;72536;-57
2023/10/20 08:22:03;;;;;;;9.30;7.40;;;;;;;14.95;100.00;98132.21;104407;1268;61098;-59
2023/10/20 08:24:32;;;;;;;9.20;7.00;;;;;;;15.00;100.00;98120.34;104289;1264;61229;-60
2023/10/20 08:27:00;;;;;;;9.60;7.90;;;;;;;15.05;100.00;98122.41;104172;1263;74084;-60
2023/10/20 08:29:28;;;;;;;7.60;6.90;;;;;;;15.08;100.00;98127.96;104428;1255;68052;-60
2023/10/20 08:31:56;;;;;;;;;;;;;;;15.08;100.00;98129.54;104262;1276;72934;-60
2023/10/20 08:34:24;;;;;;;8.40;7.40;;;;;;;15.11;100.00;98139.71;104402;1257;61761;-59
2023/10/20 08:36:52;;;;;;;8.20;7.40;;;;;;;15.13;100.00;98163.16;104370;1257;60454;-59
2023/10/20 08:39:20;;;;;;;11.50;7.70;;;;;;;15.12;100.00;98160.59;104397;1254;72755;-60
2023/10/20 08:41:49;;;;;;;8.20;7.40;;;;;;;15.13;100.00;98162.10;104355;1257;69024;-59
2023/10/20 08:44:18;;;;;;;7.90;7.10;;;;;;;15.15;100.00;98168.86;104431;1254;72319;-59
2023/10/20 08:46:46;;;;;;;;;;;;;;;15.15;100.00;98168.15;104566;1263;61553;-60
2023/10/20 08:49:18;;;;;;;;;;;;;;;15.11;100.00;98164.38;104369;1264;60104;-62
2023/10/20 08:51:46;;;;;;;8.20;6.80;;;;;;;15.10;100.00;98163.77;104411;1254;74290;-59
2023/10/20 08:54:14;;;;;;;8.50;7.40;;;;;;;15.07;100.00;98163.17;104248;1269;68354;-60
2023/10/20 08:56:42;;;;;;;7.70;7.00;;;;;;;15.08;100.00;98161.83;104306;1273;73211;-59
2023/10/20 08:59:10;;;;;;;9.40;7.40;;;;;;;15.13;100.00;98155.61;104323;1272;61577;-59
2023/10/20 09:01:38;;;;;;;10.90;7.10;;;;;;;15.23;100.00;98161.15;104313;1254;60512;-60
2023/10/20 09:04:06;;;;;;;9.70;7.80;;;;;;;15.24;100.00;98161.21;104355;1254;73691;-60
2023/10/20 09:06:34;;;;;;;19.20;13.10;;;;;;;15.23;100.00;98170.99;104280;1276;69753;-60
2023/10/20 09:09:05;;;;;;;13.20;9.80;;;;;;;15.24;100.00;98171.33;104305;1254;72525;-59
2023/10/20 09:11:33;;;;;;;12.20;9.20;;;;;;;15.26;100.00;98180.30;104395;1270;61855;-59
2023/10/20 09:14:02;;;;;;;12.40;9.00;;;;;;;15.26;100.00;98174.27;104413;1254;60526;-60
2023/10/20 09:16:30;;;;;;;10.10;8.00;;;;;;;15.26;100.00;98167.23;104330;1270;73729;-60
2023/10/20 09:18:58;;;;;;;12.40;8.10;;;;;;;15.30;100.00;98168.29;104441;1267;72221;-59
2023/10/20 09:21:26;;;;;;;14.10;10.60;;;;;;;15.33;100.00;98168.20;108301;1253;72577;-62
2023/10/20 09:23:54;;;;;;;11.30;9.70;;;;;;;15.37;100.00;98161.29;107047;1253;61504;-59
2023/10/20 09:26:23;;;;;;;12.10;9.70;;;;;;;15.38;100.00;98163.48;104610;1263;60450;-60
2023/10/20 09:28:53;;;;;;;13.80;8.60;;;;;;;15.42;100.00;98162.36;104369;1273;74335;-59
2023/10/20 09:31:22;;;;;;;7.80;7.10;;;;;;;15.43;100.00;98156.58;104670;1257;70190;-59
2023/10/20 09:33:49;;;;;;;8.40;7.60;;;;;;;15.45;100.00;98151.25;104537;1257;73187;-59
2023/10/20 09:36:17;;;;;;;8.20;7.40;;;;;;;15.46;100.00;98155.43;104367;1253;62197;-59
2023/10/20 09:38:50;;;;;;;7.90;7.10;;;;;;;15.47;100.00;98159.57;104293;1256;60462;-59
2023/10/20 09:41:20;;;;;;;12.50;7.50;;;;;;;15.48;100.00;98156.48;104384;1257;73686;-60
2023/10/20 09:43:52;;;;;;;9.10;8.20;;;;;;;15.50;100.00;98162.34;104334;1259;69160;-59
2023/10/20 09:46:46;;;;;;;11.20;8.40;;;;;;;15.51;100.00;98162.96;104378;1266;73250;-60
2023/10/20 09:49:16;;;;;;;16.90;12.50;;;;;;;15.52;100.00;98162.71;104406;1267;61498;-61
2023/10/20 09:51:45;;;;;;;11.20;9.50;;;;;;;15.55;100.00;98159.41;104468;1256;60453;-60
2023/10/20 09:54:14;;;;;;;13.10;10.80;;;;;;;15.58;100.00;98154.18;104308;1254;72692;-59
2023/10/20 09:56:44;;;;;;;14.40;12.10;;;;;;;15.61;100.00;98154.19;104293;1259;68761;-59
2023/10/20 09:59:26;;;;;;;12.00;9.30;;;;;;;15.63;100.00;98157.29;104365;1260;72499;-60
2023/10/20 10:01:58;;;;;;;14.70;9.50;;;;;;;15.65;100.00;98153.45;104293;1257;63517;-59
2023/10/20 10:04:36;;;;;;;9.00;7.60;;;;;;;15.63;100.00;98146.38;104449;1256;60676;-59
2023/10/20 10:07:08;;;;;;;10.30;8.20;;;;;;;15.61;100.00;98149.39;104332;1257;73722;-59
2023/10/20 10:09:43;;;;;;;10.20;8.00;;;;;;;15.62;100.00;98151.29;104296;1270;70081;-61
2023/10/20 10:12:14;;;;;;;8.70;7.90;;;;;;;15.63;100.00;98153.05;104706;1254;71776;-60
2023/10/20 10:14:52;;;;;;;8.10;7.00;;;;;;;15.70;100.00;98154.40;106161;1254;62571;-59
2023/10/20 10:17:23;;;;;;;10.90;8.00;;;;;;;15.77;100.00;98154.38;104424;1254;60501;-60
2023/10/20 10:19:55;;;;;;;10.30;7.10;;;;;;;15.76;100.00;98151.07;104320;1254;74477;-59
2023/10/20 10:22:30;;;;;;;12.80;7.80;;;;;;;15.77;100.00;98148.95;104346;1255;69605;-61
2023/10/20 10:25:00;;;;;;;12.30;7.80;;;;;;;15.77;100.00;98143.20;104282;1261;72644;-61
2023/10/20 10:27:29;;;;;;;9.10;8.20;;;;;;;15.77;100.00;98147.81;104374;1257;61757;-61
2023/10/20 10:29:59;;;;;;;7.90;7.10;;;;;;;15.77;100.00;98163.20;104526;1254;60941;-58
2023/10/20 10:32:32;;;;;;;9.20;8.00;;;;;;;15.75;100.00;98163.36;104365;1258;75626;-59
2023/10/20 10:35:01;;;;;;;11.40;7.10;;;;;;;15.80;100.00;98169.65;104425;1261;69019;-60
2023/10/20 10:37:37;;;;;;;12.50;8.60;;;;;;;15.79;100.00;98164.43;104312;1269;72782;-59
2023/10/20 10:40:15;;;;;;;8.50;7.70;;;;;;;15.80;100.00;98160.16;104352;1258;60767;-60
2023/10/20 10:42:47;;;;;;;9.10;7.60;;;;;;;15.80;100.00;98159.17;104395;1253;60438;-60
2023/10/20 10:45:15;;;;;;;9.80;7.80;;;;;;;15.84;100.00;98159.20;104250;1269;74491;-59
2023/10/20 10:47:42;;;;;;;;;;;;;;;15.87;100.00;98159.68;104437;1257;69296;-59
2023/10/20 10:50:11;;;;;;;11.10;7.90;;;;;;;15.88;100.00;98165.77;104370;1272;72347;-59
2023/10/20 10:52:39;;;;;;;9.40;8.50;;;;;;;15.88;100.00;98171.94;104424;1254;61563;-59
2023/10/20 10:55:09;;;;;;;9.10;8.20;;;;;;;15.89;100.00;98174.88;104458;1253;60453;-59
2023/10/20 10:57:38;;;;;;;14.50;9.20;;;;;;;15.91;100.00;98174.30;104375;1267;74450;-60
2023/10/20 11:00:07;;;;;;;18.00;13.00;;;;;;;15.94;100.00;98174.79;104393;1257;69160;-60
2023/10/20 11:02:34;;;;;;;18.00;11.60;;;;;;;15.97;100.00;98175.79;104412;1259;71773;-60
2023/10/20 11:05:03;;;;;;;;;;;;;;;15.99;100.00;98177.23;104373;1254;61576;-60
2023/10/20 11:07:31;;;;;;;16.20;9.10;;;;;;;15.99;100.00;98173.27;104317;1254;60546;-60
2023/10/20 11:10:00;;;;;;;12.30;8.90;;;;;;;16.02;100.00;98166.70;104443;1257;72742;-61
2023/10/20 11:12:29;;;;;;;10.30;8.50;;;;;;;16.02;100.00;98163.52;104424;1264;69186;-61
2023/10/20 11:14:59;;;;;;;14.40;9.00;;;;;;;16.02;100.00;98157.30;104449;1254;72342;-65
2023/10/20 11:17:27;;;;;;;9.70;8.20;;;;;;;16.02;100.00;98158.69;104371;1253;61412;-62
2023/10/20 11:19:56;;;;;;;9.40;8.50;;;;;;;16.07;100.00;98156.19;104361;1262;59958;-61
2023/10/20 11:22:24;;;;;;;13.00;8.20;;;;;;;16.10;100.00;98158.64;104375;1251;73696;-61
2023/10/20 11:24:52;;;;;;;12.20;8.20;;;;;;;16.12;100.00;98161.65;107987;1254;69380;-59
2023/10/20 11:27:20;;;;;;;10.50;7.70;;;;;;;16.16;100.00;98160.09;104542;1253;72713;-60
2023/10/20 11:29:49;;;;;;;;;;;;;;;16.20;100.00;98158.29;104797;1254;60421;-58
2023/10/20 11:32:25;;;;;;;15.60;8.00;;;;;;;16.26;100.00;98154.23;104451;1254;60591;-59
2023/10/20 11:34:54;;;;;;;11.20;8.20;;;;;;;16.33;100.00;98146.55;105119;1254;73665;-60
2023/10/20 11:37:22;;;;;;;13.50;8.30;;;;;;;16.44;100.00;98149.34;104638;1257;69314;-61
2023/10/20 11:39:49;;;;;;;12.50;8.10;;;;;;;16.50;100.00;98156.13;104899;1254;72803;-61
2023/10/20 11:42:17;;;;;;;;;;;;;;;16.59;100.00;98155.52;104260;1258;61765;-60
2023/10/20 11:44:46;;;;;;;;;;;;;;;16.66;100.00;98161.98;104321;1264;60449;-60
2023/10/20 11:47:13;;;;;;;11.10;7.70;;;;;;;16.69;100.00;98168.80;104293;1257;73996;-60
2023/10/20 11:49:41;;;;;;;;;;;;;;;16.77;100.00;98172.34;104422;1254;69282;-60
2023/10/20 11:52:09;;;;;;;9.70;8.10;;;;;;;16.83;100.00;98165.57;104172;1266;72969;-60
2023/10/20 11:54:37;;;;;;;10.40;8.10;;;;;;;16.85;100.00;98165.22;104401;1256;61638;-61
2023/10/20 11:57:05;;;;;;;;;;;;;;;16.86;100.00;98163.90;104315;1257;60527;-59
2023/10/20 11:59:35;;;;;;;17.20;11.50;;;;;;;16.87;100.00;98166.42;104376;1269;72676;-60
2023/10/20 12:02:03;;;;;;;21.40;11.40;;;;;;;16.87;100.00;98169.84;104373;1257;70268;-59
2023/10/20 12:04:31;;;;;;;19.60;13.20;;;;;;;16.89;100.00;98172.84;104417;1254;72593;-59
2023/10/20 12:06:59;;;;;;;17.60;12.60;;;;;;;16.91;100.00;98166.25;104409;1269;63682;-58
2023/10/20 12:09:27;;;;;;;18.40;10.50;;;;;;;16.90;100.00;98164.59;104310;1269;60063;-62
2023/10/20 12:11:55;;;;;;;13.90;9.90;;;;;;;16.90;100.00;98173.62;104273;1275;73629;-58
2023/10/20 12:14:23;;;;;;;15.10;9.40;;;;;;;16.89;100.00;98173.64;104432;1261;70579;-59
2023/10/20 12:16:52;;;;;;;11.70;9.20;;;;;;;16.91;100.00;98167.85;108352;1253;73326;-58
2023/10/20 12:19:20;;;;;;;10.30;8.40;;;;;;;16.93;100.00;98167.14;104854;1254;61861;-58
2023/10/20 12:21:48;;;;;;;12.50;9.40;;;;;;;16.94;100.00;98165.48;104344;1254;60613;-59
2023/10/20 12:24:16;;;;;;;10.70;8.50;;;;;;;16.96;100.00;98175.20;108328;1253;74516;-59
2023/10/20 12:26:43;;;;;;;14.80;9.00;;;;;;;16.96;100.00;98167.05;108391;1250;70189;-59
2023/10/20 12:29:12;;;;;;;13.40;9.70;;;;;;;16.96;100.00;98166.18;106172;1253;72901;-59
2023/10/20 12:31:40;;;;;;;13.00;11.10;;;;;;;16.93;100.00;98158.80;104503;1253;62847;-58
2023/10/20 12:34:09;;;;;;;21.60;14.30;;;;;;;16.95;100.00;98159.03;105222;1253;60639;-58
2023/10/20 12:36:39;;;;;;;32.00;19.30;;;;;;;16.97;100.00;98153.21;104772;1256;74805;-59
2023/10/20 12:39:07;;;;;;;21.40;15.00;;;;;;;17.00;100.00;98154.33;104395;1256;72372;-58
2023/10/20 12:41:35;;;;;;;;;;;;;;;17.01;100.00;98156.66;104315;1257;74437;-59
2023/10/20 12:44:04;;;;;;;19.30;12.60;;;;;;;17.04;100.00;98156.39;104366;1253;61649;-59
2023/10/20 12:46:32;;;;;;;21.80;16.40;;;;;;;17.04;100.00;98161.53;104435;1253;60559;-58
2023/10/20 12:49:00;;;;;;;25.90;18.50;;;;;;;17.01;100.00;98163.21;104322;1254;73664;-59
2023/10/20 12:51:28;;;;;;;26.80;17.70;;;;;;;16.97;100.00;98166.04;104298;1266;69535;-58
2023/10/20 12:53:56;;;;;;;;;;;;;;;17.01;100.00;98167.69;104529;1266;73165;-59
2023/10/20 12:56:24;;;;;;;17.90;12.00;;;;;;;17.05;100.00;98165.86;104432;1254;61441;-59
2023/10/20 12:58:53;;;;;;;19.80;12.70;;;;;;;17.01;100.00;98166.78;104443;1256;61835;-61
2023/10/20 13:01:21;;;;;;;15.70;11.40;;;;;;;16.99;100.00;98169.91;104318;1257;75203;-57
2023/10/20 13:03:49;;;;;;;13.70;10.40;;;;;;;16.99;100.00;98169.29;104633;1256;69535;-58
2023/10/20 13:06:17;;;;;;;;;;;;;;;16.99;100.00;98168.02;104455;1256;72714;-58
2023/10/20 13:08:45;;;;;;;15.30;9.50;;;;;;;17.01;100.00;98165.92;104501;1261;62039;-58
2023/10/20 13:11:13;;;;;;;13.50;9.40;;;;;;;16.97;100.00;98162.49;104357;1256;60510;-59
2023/10/20 13:13:41;;;;;;;15.50;9.80;;;;;;;16.97;100.00;98159.00;104397;1256;73658;-58
2023/10/20 13:16:09;;;;;;;15.70;10.90;;;;;;;16.99;100.00;98157.23;104509;1250;69526;-57
2023/10/20 13:18:37;;;;;;;15.10;10.90;;;;;;;17.02;100.00;98155.33;104365;1266;72565;-58
2023/10/20 13:21:05;;;;;;;14.20;10.80;;;;;;;17.06;100.00;98157.05;104500;1266;62138;-59
2023/10/20 13:23:33;;;;;;;13.90;10.60;;;;;;;17.09;100.00;98160.17;104331;1260;61008;-59
2023/10/20 13:26:04;;;;;;;12.80;10.60;;;;;;;17.11;100.00;98167.89;108357;1251;73681;-59
2023/10/20 13:28:32;;;;;;;10.40;9.40;;;;;;;17.16;100.00;98167.13;105242;1253;68834;-58
2023/10/20 13:31:06;;;;;;;11.60;10.10;;;;;;;17.19;100.00;98170.77;104464;1266;72356;-58
2023/10/20 13:33:36;;;;;;;15.70;12.60;;;;;;;17.22;100.00;98170.98;104560;1259;61674;-58
2023/10/20 13:36:07;;;;;;;15.10;11.80;;;;;;;17.23;100.00;98168.27;104726;1256;63492;-59
2023/10/20 13:38:38;;;;;;;16.50;11.20;;;;;;;17.22;100.00;98164.12;104447;1254;74350;-59
2023/10/20 13:41:06;;;;;;;14.80;11.40;;;;;;;17.21;100.00;98157.98;104270;1256;70243;-58
2023/10/20 13:43:34;;;;;;;17.20;11.90;;;;;;;17.22;100.00;98160.17;104390;1256;72490;-59
2023/10/20 13:46:02;;;;;;;;;;;;;;;17.24;100.00;98163.71;104397;1259;60631;-58
2023/10/20 13:48:33;;;;;;;14.80;11.60;;;;;;;17.21;100.00;98162.42;104306;1251;60567;-58
2023/10/20 13:51:01;;;;;;;15.80;11.10;;;;;;;17.23;100.00;98167.75;104451;1257;72852;-59
2023/10/20 13:53:28;;;;;;;;;;;;;;;17.21;100.00;98169.71;104542;1266;69284;-57
2023/10/20 13:55:56;;;;;;;;;;;;;;;17.24;100.00;98167.96;104398;1260;72482;-58
2023/10/20 13:58:25;;;;;;;;;;;;;;;17.24;100.00;98167.49;104483;1266;62423;-58
2023/10/20 14:00:53;;;;;;;19.60;14.80;;;;;;;17.23;100.00;98164.73;104386;1253;59855;-57
2023/10/20 14:03:23;;;;;;;19.50;15.40;;;;;;;17.17;100.00;98164.54;104348;1256;74603;-58
2023/10/20 14:05:56;;;;;;;22.70;15.30;;;;;;;17.12;100.00;98170.98;104463;1251;68392;-57
2023/10/20 14:08:25;;;;;;;15.60;13.00;;;;;;;17.15;100.00;98177.52;104371;1261;71696;-58
2023/10/20 14:10:54;;;;;;;22.00;12.20;;;;;;;17.17;100.00;98174.81;104326;1254;62046;-58
2023/10/20 14:13:21;;;;;;;14.20;11.00;;;;;;;17.19;100.00;98179.80;104739;1267;59949;-59
2023/10/20 14:15:49;;;;;;;11.70;10.50;;;;;;;17.19;100.00;98184.90;107057;1253;73686;-58
2023/10/20 14:18:17;;;;;;;13.40;10.80;;;;;;;17.20;100.00;98188.55;104519;1256;69087;-57
2023/10/20 14:20:48;;;;;;;16.00;11.20;;;;;;;17.21;100.00;98191.70;105983;1256;72498;-56
2023/10/20 14:23:21;;;;;;;12.00;10.80;;;;;;;17.20;100.00;98192.05;104564;1254;61487;-57
2023/10/20 14:25:56;;;;;;;14.40;12.20;;;;;;;17.20;100.00;98188.89;104469;1256;61839;-57
2023/10/20 14:28:31;;;;;;;13.10;11.80;;;;;;;17.19;100.00;98189.54;104349;1270;74620;-56
2023/10/20 14:31:02;;;;;;;22.30;16.20;;;;;;;17.20;100.00;98190.29;104458;1265;69449;-56
2023/10/20 14:33:30;;;;;;;18.80;14.80;;;;;;;17.21;100.00;98194.70;104479;1254;72648;-56
2023/10/20 14:35:58;;;;;;;17.50;15.30;;;;;;;17.18;100.00;98192.96;104520;1257;61431;-56
2023/10/20 14:38:26;;;;;;;;;;;;;;;17.13;100.00;98195.73;104360;1263;60483;-55
2023/10/20 14:41:02;;;;;;;12.90;11.50;;;;;;;17.10;100.00;98201.83;104426;1256;74493;-56
2023/10/20 14:43:34;;;;;;;14.20;12.30;;;;;;;17.09;100.00;98201.30;104390;1261;69208;-56
2023/10/20 14:46:04;;;;;;;16.50;11.80;;;;;;;17.07;100.00;98202.13;104371;1257;72525;-56
2023/10/20 14:48:32;;;;;;;13.30;11.80;;;;;;;17.06;100.00;98213.03;104329;1257;61511;-56
2023/10/20 14:51:04;;;;;;;14.90;11.90;;;;;;;17.03;100.00;98215.45;104429;1258;59974;-57
2023/10/20 14:53:35;;;;;;;14.30;12.30;;;;;;;17.03;100.00;98220.95;104357;1254;73692;-56
2023/10/20 14:56:04;;;;;;;15.00;12.60;;;;;;;17.02;100.00;98222.81;104441;1257;69488;-56
2023/10/20 14:58:32;;;;;;;15.20;12.70;;;;;;;17.00;100.00;98224.75;104368;1267;72685;-56
2023/10/20 15:01:00;;;;;;;;;;;;;;;16.99;100.00;98220.20;104434;1257;62434;-55
2023/10/20 15:03:29;;;;;;;15.50;12.50;;;;;;;17.00;100.00;98222.73;104343;1257;60541;-57